Time;durP1;ratioP1;P1;durP2;ratioP2;P2;SDS_P1;SDS_P2;PMS_P1;PMS_P2;Temp;Humidity;BMP_temperature;BMP_pressure;BME280_temperature;BME280_humidity;BME280_pressure;Samples;Min_cycle;Max_cycle;Signal;HPM_P1;HPM_P2
2021/08/22 00:00:11;;;;;;;3.30;3.00;;;;;;;19.01;73.62;99906.84;1665325;85;21472;-73
2021/08/22 00:02:40;;;;;;;3.90;3.60;;;;;;;18.97;73.75;99909.37;1664634;85;21023;-71
2021/08/22 00:05:07;;;;;;;3.90;3.50;;;;;;;18.92;74.14;99903.20;1665092;85;21032;-70
2021/08/22 00:07:33;;;;;;;3.87;3.58;;;;;;;18.86;74.48;99909.83;1679808;85;21032;-72
2021/08/22 00:10:00;;;;;;;5.40;3.75;;;;;;;18.80;74.87;99911.05;1688078;85;21013;-71
2021/08/22 00:12:26;;;;;;;6.50;3.35;;;;;;;18.76;75.24;99915.45;1688339;85;22238;-71
2021/08/22 00:14:54;;;;;;;4.12;3.65;;;;;;;18.72;75.48;99913.89;1688482;85;21007;-71
2021/08/22 00:17:21;;;;;;;8.68;3.87;;;;;;;18.68;75.71;99913.69;1688694;85;21543;-71
2021/08/22 00:19:47;;;;;;;3.67;3.33;;;;;;;18.66;75.88;99916.44;1672331;85;21057;-71
2021/08/22 00:22:13;;;;;;;3.60;3.30;;;;;;;18.63;76.02;99919.77;1660011;85;21262;-71
2021/08/22 00:24:40;;;;;;;3.30;3.00;;;;;;;18.61;76.17;99921.96;1659796;85;21033;-71
2021/08/22 00:27:06;;;;;;;4.03;3.12;;;;;;;18.55;76.30;99919.90;1665946;85;20972;-72
2021/08/22 00:29:32;;;;;;;3.52;3.12;;;;;;;18.52;76.53;99925.08;1649170;86;21062;-72
2021/08/22 00:32:01;;;;;;;4.08;3.67;;;;;;;18.48;76.69;99924.05;1638174;87;21036;-72
2021/08/22 00:34:27;;;;;;;4.00;3.33;;;;;;;18.44;76.76;99927.12;1638479;87;21023;-72
2021/08/22 00:36:54;;;;;;;9.80;3.47;;;;;;;18.39;76.94;99928.01;1638466;87;22032;-72
2021/08/22 00:39:23;;;;;;;3.80;3.45;;;;;;;18.35;77.04;99932.98;1638312;87;21007;-71
2021/08/22 00:41:49;;;;;;;5.55;3.70;;;;;;;18.29;77.20;99932.23;1635732;87;21091;-71
2021/08/22 00:44:16;;;;;;;3.47;3.17;;;;;;;18.25;77.29;99931.21;1652006;86;21036;-71
2021/08/22 00:46:42;;;;;;;3.83;3.40;;;;;;;18.25;77.38;99929.85;1639079;87;21027;-71
2021/08/22 00:49:09;;;;;;;3.83;3.45;;;;;;;18.23;77.27;99928.77;1638105;87;21165;-71
2021/08/22 00:51:36;;;;;;;3.42;3.12;;;;;;;18.21;77.22;99928.28;1636696;86;21063;-72
2021/08/22 00:54:02;;;;;;;4.28;3.90;;;;;;;18.20;77.25;99933.45;1668312;85;21060;-72
2021/08/22 00:56:31;;;;;;;4.25;3.52;;;;;;;17.96;78.28;99928.62;1657796;85;21559;-71
2021/08/22 00:58:57;;;;;;;8.03;3.50;;;;;;;17.79;78.75;99935.11;1630593;88;21024;-71
2021/08/22 01:01:24;;;;;;;3.40;3.10;;;;;;;17.68;79.39;99932.25;1661081;85;21189;-72
2021/08/22 01:03:55;;;;;;;3.50;3.00;;;;;;;17.61;79.12;99937.22;1629806;86;20964;-72
2021/08/22 01:06:39;;;;;;;4.78;2.87;;;;;;;17.56;79.17;99933.97;1636615;87;21027;-72
2021/08/22 01:09:19;;;;;;;3.45;3.15;;;;;;;17.64;78.68;99946.17;1640372;87;20963;-72
2021/08/22 01:11:46;;;;;;;6.92;3.50;;;;;;;17.71;78.00;99947.44;1627085;86;21047;-72
2021/08/22 01:14:15;;;;;;;5.65;3.62;;;;;;;17.76;77.58;99949.28;1621908;85;21220;-71
2021/08/22 01:16:54;;;;;;;3.42;3.02;;;;;;;17.78;77.31;99948.45;1636144;87;20925;-72
2021/08/22 01:19:42;;;;;;;3.42;3.12;;;;;;;17.79;77.00;99954.94;1672198;84;20995;-72
2021/08/22 01:22:08;;;;;;;3.95;2.77;;;;;;;17.78;76.93;99954.70;1663767;85;21569;-71
2021/08/22 01:24:37;;;;;;;7.62;3.27;;;;;;;17.84;76.58;99960.33;1688635;85;21670;-72
2021/08/22 01:27:04;;;;;;;3.83;2.95;;;;;;;17.96;76.38;99956.39;1663558;85;21023;-72
2021/08/22 01:29:33;;;;;;;3.33;3.02;;;;;;;18.09;75.78;99961.10;1633408;86;21007;-72
2021/08/22 01:32:01;;;;;;;3.80;3.42;;;;;;;18.17;74.41;99960.47;1662647;85;20988;-72
2021/08/22 01:34:28;;;;;;;3.45;2.95;;;;;;;18.18;74.27;99956.07;1663180;85;20960;-71
2021/08/22 01:36:57;;;;;;;4.20;2.95;;;;;;;18.20;74.36;99962.59;1662627;85;21044;-73
2021/08/22 01:39:25;;;;;;;4.35;2.22;;;;;;;18.21;73.78;99966.39;1654387;85;40093;-72
2021/08/22 01:41:51;;;;;;;3.25;2.87;;;;;;;18.23;72.63;99964.72;1659027;86;21000;-72
2021/08/22 01:44:18;;;;;;;2.80;2.58;;;;;;;18.20;72.29;99965.32;1659243;86;21056;-71
2021/08/22 01:46:44;;;;;;;2.83;1.95;;;;;;;18.06;72.57;99965.23;1659159;86;21043;-71
2021/08/22 01:49:10;;;;;;;3.22;2.72;;;;;;;17.99;72.87;99963.95;1681502;85;21005;-71
2021/08/22 01:51:37;;;;;;;4.72;2.58;;;;;;;17.94;73.10;99973.00;1688499;85;21295;-72
2021/08/22 01:54:07;;;;;;;2.75;2.33;;;;;;;17.90;73.32;99973.32;1661313;85;21541;-72
2021/08/22 01:56:35;;;;;;;3.10;2.83;;;;;;;17.84;73.45;99970.42;1658249;85;21034;-71
2021/08/22 01:59:03;;;;;;;3.80;2.80;;;;;;;17.77;73.63;99968.59;1655145;85;20977;-71
2021/08/22 02:01:30;;;;;;;3.27;2.60;;;;;;;17.69;74.05;99961.08;1662106;85;20967;-70
2021/08/22 02:04:11;;;;;;;2.83;2.47;;;;;;;17.61;74.21;99969.86;1688456;85;21988;-71
2021/08/22 02:06:54;;;;;;;3.10;2.80;;;;;;;17.52;74.43;99968.30;1687877;85;21015;-71
2021/08/22 02:09:33;;;;;;;4.47;2.65;;;;;;;17.41;74.72;99967.59;1679843;83;21013;-71
2021/08/22 02:12:06;;;;;;;3.47;2.62;;;;;;;17.35;74.97;99972.84;1688548;85;20949;-71
2021/08/22 02:14:34;;;;;;;5.63;4.77;;;;;;;17.31;75.04;99972.34;1665208;85;21063;-71
2021/08/22 02:17:00;;;;;;;4.50;2.80;;;;;;;17.29;74.99;99971.80;1670565;83;22219;-72
2021/08/22 02:19:27;;;;;;;4.25;2.70;;;;;;;17.23;75.02;99976.48;1684200;83;21500;-71
2021/08/22 02:21:53;;;;;;;5.42;3.37;;;;;;;17.20;74.97;99974.89;1676840;85;21015;-71
2021/08/22 02:24:19;;;;;;;3.12;2.58;;;;;;;17.15;74.98;99979.83;1689150;85;21146;-71
2021/08/22 02:26:46;;;;;;;4.10;3.08;;;;;;;17.12;75.06;99978.23;1689229;85;21014;-71
2021/08/22 02:29:12;;;;;;;2.90;2.70;;;;;;;17.10;75.15;99980.41;1689114;84;21241;-71
2021/08/22 02:31:39;;;;;;;6.97;2.98;;;;;;;17.08;75.16;99986.13;1700423;84;20945;-71
2021/08/22 02:34:05;;;;;;;7.10;3.05;;;;;;;17.06;75.21;99984.80;1700572;84;21060;-70
2021/08/22 02:36:33;;;;;;;4.40;2.95;;;;;;;17.03;75.13;99981.27;1700422;84;21004;-71
2021/08/22 02:38:59;;;;;;;4.08;2.70;;;;;;;16.98;75.22;99983.49;1700328;84;21112;-70
2021/08/22 02:41:26;;;;;;;4.53;2.15;;;;;;;16.92;75.31;99985.47;1689040;85;22079;-70
2021/08/22 02:43:53;;;;;;;5.55;2.55;;;;;;;16.88;75.45;99982.24;1688475;84;21811;-69
2021/08/22 02:46:20;;;;;;;4.58;2.95;;;;;;;16.85;75.60;99983.61;1688224;84;20984;-70
2021/08/22 02:48:47;;;;;;;3.37;2.22;;;;;;;16.81;75.81;99981.74;1687197;84;21048;-71
2021/08/22 02:51:13;;;;;;;3.55;2.30;;;;;;;16.77;75.99;99983.41;1677032;85;21107;-71
2021/08/22 02:53:41;;;;;;;2.52;2.33;;;;;;;16.72;76.18;99984.26;1676894;85;21258;-72
2021/08/22 02:56:07;;;;;;;2.92;2.35;;;;;;;16.68;76.40;99987.83;1689201;84;21222;-72
2021/08/22 02:58:34;;;;;;;2.37;2.17;;;;;;;16.63;76.56;99989.22;1677318;85;21047;-72
2021/08/22 03:01:00;;;;;;;1.85;1.72;;;;;;;16.60;76.75;99987.05;1689199;84;20984;-72
2021/08/22 03:03:26;;;;;;;3.30;2.30;;;;;;;16.58;76.84;99990.06;1688956;84;21031;-71
2021/08/22 03:05:52;;;;;;;4.78;2.50;;;;;;;16.56;76.89;99987.59;1688978;84;21013;-72
2021/08/22 03:08:19;;;;;;;3.12;2.77;;;;;;;16.56;76.87;99992.20;1689123;84;21081;-72
2021/08/22 03:10:46;;;;;;;6.47;2.45;;;;;;;16.55;76.75;99994.11;1666736;85;21100;-72
2021/08/22 03:13:13;;;;;;;3.08;2.30;;;;;;;16.56;76.60;100006.59;1683476;85;21010;-71
2021/08/22 03:15:39;;;;;;;2.42;2.22;;;;;;;16.57;76.46;99999.27;1689221;84;21073;-71
2021/08/22 03:18:05;;;;;;;2.85;2.60;;;;;;;16.59;76.30;100008.53;1663888;85;21107;-71
2021/08/22 03:20:31;;;;;;;8.13;2.60;;;;;;;16.60;76.11;100007.41;1694853;83;20945;-71
2021/08/22 03:22:58;;;;;;;3.25;2.50;;;;;;;16.61;75.91;100012.57;1718905;83;21524;-72
2021/08/22 03:25:24;;;;;;;3.40;2.55;;;;;;;16.62;75.78;100012.84;1692328;83;21007;-72
2021/08/22 03:27:50;;;;;;;2.62;2.30;;;;;;;16.63;75.71;100017.19;1694280;83;21033;-71
2021/08/22 03:30:17;;;;;;;3.20;2.37;;;;;;;16.64;75.73;100020.72;1707464;83;20980;-70
2021/08/22 03:32:43;;;;;;;2.60;2.17;;;;;;;16.65;75.79;100021.77;1669461;86;21015;-71
2021/08/22 03:35:09;;;;;;;2.65;2.33;;;;;;;16.65;75.92;100018.24;1663838;85;21533;-71
2021/08/22 03:37:35;;;;;;;2.62;2.20;;;;;;;16.67;76.08;100020.96;1693375;83;21021;-71
2021/08/22 03:40:02;;;;;;;2.92;2.42;;;;;;;16.68;76.17;100023.13;1694461;83;21568;-71
2021/08/22 03:42:29;;;;;;;3.33;2.30;;;;;;;16.67;76.32;100026.39;1694044;83;21036;-71
2021/08/22 03:44:57;;;;;;;3.37;2.22;;;;;;;16.67;76.55;100018.24;1718775;83;20902;-71
2021/08/22 03:47:23;;;;;;;2.20;2.05;;;;;;;16.67;76.60;100022.32;1718406;83;21040;-72
2021/08/22 03:49:49;;;;;;;4.45;2.77;;;;;;;16.66;76.95;100026.13;1718558;83;20941;-72
2021/08/22 03:52:15;;;;;;;2.10;1.75;;;;;;;16.67;77.46;100029.66;1716894;83;21051;-73
2021/08/22 03:54:42;;;;;;;3.27;2.65;;;;;;;16.68;78.18;100033.45;1718822;83;21108;-71
2021/08/22 03:57:08;;;;;;;7.17;2.25;;;;;;;16.68;78.14;100028.02;1718778;83;21020;-71
2021/08/22 03:59:35;;;;;;;2.92;2.02;;;;;;;16.70;78.74;100031.80;1694261;83;20995;-72
2021/08/22 04:02:01;;;;;;;2.85;2.55;;;;;;;16.69;78.83;100030.98;1693625;83;20984;-72
2021/08/22 04:04:29;;;;;;;2.60;2.40;;;;;;;16.69;79.48;100024.19;1715966;83;21619;-72
2021/08/22 04:06:57;;;;;;;2.77;2.47;;;;;;;16.70;79.99;100029.08;1711973;83;21489;-72
2021/08/22 04:09:25;;;;;;;3.92;2.45;;;;;;;16.71;80.41;100027.45;1718157;83;20992;-72
2021/08/22 04:11:54;;;;;;;3.62;2.75;;;;;;;16.73;80.48;100029.35;1694045;83;20989;-71
2021/08/22 04:14:20;;;;;;;3.55;2.67;;;;;;;16.78;80.79;100032.58;1694063;83;21088;-71
2021/08/22 04:16:49;;;;;;;3.42;3.10;;;;;;;16.82;80.83;100028.20;1718749;83;21065;-70
2021/08/22 04:19:17;;;;;;;3.33;3.02;;;;;;;16.86;81.25;100030.61;1718860;83;20997;-71
2021/08/22 04:21:44;;;;;;;3.83;3.40;;;;;;;16.91;81.19;100027.86;1703754;83;21117;-71
2021/08/22 04:24:10;;;;;;;4.25;3.10;;;;;;;16.95;81.19;100024.83;1688658;83;21060;-71
2021/08/22 04:26:40;;;;;;;3.92;3.05;;;;;;;16.97;81.20;100026.73;1679585;84;21039;-70
2021/08/22 04:29:08;;;;;;;3.75;3.45;;;;;;;17.02;81.24;100029.41;1713280;83;21012;-71
2021/08/22 04:31:35;;;;;;;4.87;3.50;;;;;;;17.10;81.24;100035.59;1719195;83;21531;-71
2021/08/22 04:34:01;;;;;;;8.88;3.12;;;;;;;17.19;81.12;100032.52;1694440;83;21015;-71
2021/08/22 04:36:28;;;;;;;4.65;3.02;;;;;;;17.29;81.05;100036.52;1694388;83;21013;-72
2021/08/22 04:38:54;;;;;;;3.72;3.17;;;;;;;17.40;80.84;100042.12;1718838;83;21108;-71
2021/08/22 04:41:21;;;;;;;3.20;2.90;;;;;;;17.48;80.63;100044.77;1718962;83;21029;-71
2021/08/22 04:43:47;;;;;;;5.37;3.45;;;;;;;17.54;80.29;100043.63;1718613;83;21136;-71
2021/08/22 04:46:14;;;;;;;3.12;2.75;;;;;;;17.59;80.14;100050.95;1716925;83;21710;-71
2021/08/22 04:48:41;;;;;;;3.40;2.45;;;;;;;17.62;80.06;100048.47;1718687;83;21038;-73
2021/08/22 04:51:09;;;;;;;3.27;2.65;;;;;;;17.68;80.00;100051.95;1718580;83;20936;-72
2021/08/22 04:53:36;;;;;;;5.80;2.80;;;;;;;17.74;79.72;100053.53;1694299;83;21055;-72
2021/08/22 04:56:04;;;;;;;9.50;2.80;;;;;;;17.79;79.35;100050.75;1694422;83;21510;-72
2021/08/22 04:58:31;;;;;;;3.98;2.95;;;;;;;17.85;79.17;100057.73;1693974;83;20941;-70
2021/08/22 05:00:57;;;;;;;3.33;3.02;;;;;;;17.93;78.95;100057.67;1694118;83;21561;-71
2021/08/22 05:03:24;;;;;;;5.00;3.65;;;;;;;18.02;78.53;100055.94;1705553;83;21039;-71
2021/08/22 05:05:50;;;;;;;3.83;3.12;;;;;;;18.06;78.19;100061.87;1717758;83;21102;-71
2021/08/22 05:08:18;;;;;;;3.92;3.33;;;;;;;18.09;77.39;100062.64;1690749;83;21889;-72
2021/08/22 05:10:45;;;;;;;2.80;2.60;;;;;;;18.11;76.40;100061.81;1718185;83;21104;-71
2021/08/22 05:13:12;;;;;;;2.47;2.27;;;;;;;18.13;76.12;100065.61;1718913;83;21513;-70
2021/08/22 05:15:41;;;;;;;3.27;2.33;;;;;;;18.18;75.95;100069.61;1718041;82;21024;-71
2021/08/22 05:18:08;;;;;;;4.45;2.47;;;;;;;18.20;76.04;100064.70;1703499;83;21090;-71
2021/08/22 05:20:36;;;;;;;2.20;2.00;;;;;;;18.22;75.50;100070.09;1688530;85;22179;-71
2021/08/22 05:23:02;;;;;;;4.67;2.87;;;;;;;18.23;75.41;100075.81;1672091;84;21071;-71
2021/08/22 05:25:30;;;;;;;3.85;2.40;;;;;;;18.25;75.57;100073.63;1682738;84;21041;-71
2021/08/22 05:27:57;;;;;;;4.40;4.00;;;;;;;18.25;75.55;100077.70;1682097;85;20985;-73
2021/08/22 05:30:23;;;;;;;3.98;3.58;;;;;;;18.27;75.27;100074.70;1675651;84;21087;-72
2021/08/22 05:32:49;;;;;;;3.10;2.70;;;;;;;18.29;74.76;100077.92;1670378;86;21481;-72
2021/08/22 05:35:15;;;;;;;2.45;2.05;;;;;;;18.29;73.49;100072.48;1670054;86;20972;-72
2021/08/22 05:37:42;;;;;;;1.80;1.70;;;;;;;18.30;72.66;100072.75;1669958;85;21011;-70
2021/08/22 05:40:10;;;;;;;5.62;2.27;;;;;;;18.35;71.75;100080.04;1681082;83;20995;-68
2021/08/22 05:42:38;;;;;;;4.40;2.33;;;;;;;18.35;70.49;100080.85;1665367;85;20983;-69
2021/08/22 05:45:06;;;;;;;3.85;2.37;;;;;;;18.37;70.40;100082.72;1660337;84;21207;-69
2021/08/22 05:47:34;;;;;;;3.20;2.62;;;;;;;18.41;69.91;100079.70;1718573;83;20950;-69
2021/08/22 05:50:02;;;;;;;4.50;2.67;;;;;;;18.45;69.47;100075.28;1718731;83;21001;-77
2021/08/22 05:52:29;;;;;;;3.65;2.67;;;;;;;18.46;68.85;100074.19;1694706;83;21032;-68
2021/08/22 05:54:55;;;;;;;5.53;3.67;;;;;;;18.51;68.87;100080.11;1692495;83;21601;-69
2021/08/22 05:57:21;;;;;;;6.55;3.52;;;;;;;18.55;68.09;100081.98;1644348;86;22146;-70
2021/08/22 05:59:49;;;;;;;3.15;2.33;;;;;;;18.61;67.37;100086.80;1685035;83;20979;-69
2021/08/22 06:02:15;;;;;;;12.00;3.60;;;;;;;18.67;66.89;100078.27;1694052;83;21496;-71
2021/08/22 06:04:41;;;;;;;8.65;3.10;;;;;;;18.73;66.66;100083.91;1718872;83;21003;-69
2021/08/22 06:07:08;;;;;;;6.00;2.92;;;;;;;18.79;66.25;100086.57;1718790;83;21012;-69
2021/08/22 06:09:34;;;;;;;9.68;2.75;;;;;;;18.83;65.90;100084.87;1700715;83;21564;-69
2021/08/22 06:12:00;;;;;;;4.72;3.42;;;;;;;18.88;65.88;100084.80;1664784;85;20960;-70
2021/08/22 06:14:28;;;;;;;9.03;4.03;;;;;;;18.92;65.48;100076.28;1705466;83;21025;-71
2021/08/22 06:16:54;;;;;;;5.33;3.70;;;;;;;18.97;64.84;100084.39;1718487;83;21054;-70
2021/08/22 06:19:20;;;;;;;6.97;4.20;;;;;;;19.01;64.36;100084.05;1694298;83;21243;-71
2021/08/22 06:21:47;;;;;;;5.37;3.37;;;;;;;19.06;64.20;100088.88;1693291;83;21264;-70
2021/08/22 06:24:14;;;;;;;9.93;5.62;;;;;;;19.09;64.23;100089.64;1718817;83;20981;-69
2021/08/22 06:26:40;;;;;;;10.20;4.42;;;;;;;19.12;64.28;100089.06;1719044;83;21001;-70
2021/08/22 06:29:06;;;;;;;6.72;3.35;;;;;;;19.15;63.59;100080.28;1694423;83;21518;-71
2021/08/22 06:31:34;;;;;;;8.38;2.90;;;;;;;19.19;62.91;100080.48;1718420;82;21107;-70
2021/08/22 06:34:00;;;;;;;9.25;2.62;;;;;;;19.24;61.31;100085.05;1718212;83;21148;-70
2021/08/22 06:36:28;;;;;;;5.33;2.30;;;;;;;19.29;61.63;100087.70;1716106;83;20987;-70
2021/08/22 06:38:55;;;;;;;4.22;2.40;;;;;;;19.34;61.50;100084.34;1692835;83;21504;-71
2021/08/22 06:41:22;;;;;;;9.00;2.95;;;;;;;19.40;61.39;100094.62;1719040;83;20956;-70
2021/08/22 06:43:49;;;;;;;4.12;2.10;;;;;;;19.45;61.14;100089.11;1718926;83;21024;-70
2021/08/22 06:46:16;;;;;;;5.28;2.33;;;;;;;19.50;60.88;100089.02;1718883;83;21217;-70
2021/08/22 06:48:42;;;;;;;5.47;2.42;;;;;;;19.55;60.27;100091.12;1719205;83;21012;-69
2021/08/22 06:51:08;;;;;;;4.10;2.47;;;;;;;19.62;59.52;100095.35;1691111;83;21196;-69
2021/08/22 06:53:36;;;;;;;3.72;2.40;;;;;;;19.67;59.89;100100.17;1688437;85;21087;-69
2021/08/22 06:56:02;;;;;;;3.65;2.10;;;;;;;19.73;59.59;100093.52;1670135;86;21109;-70
2021/08/22 06:58:29;;;;;;;3.60;2.10;;;;;;;19.80;59.03;100095.88;1692985;83;21496;-69
2021/08/22 07:00:55;;;;;;;6.95;2.42;;;;;;;19.88;58.72;100098.70;1694152;83;21015;-69
2021/08/22 07:03:21;;;;;;;4.58;2.42;;;;;;;19.95;58.46;100101.05;1718361;83;21045;-70
2021/08/22 07:05:48;;;;;;;2.77;2.00;;;;;;;20.00;58.09;100099.56;1718380;83;21074;-70
2021/08/22 07:08:14;;;;;;;4.95;2.47;;;;;;;20.08;58.15;100104.90;1718784;83;21096;-69
2021/08/22 07:10:41;;;;;;;5.75;2.47;;;;;;;20.14;58.10;100106.42;1717422;83;21074;-70
2021/08/22 07:13:08;;;;;;;3.83;2.17;;;;;;;20.20;58.20;100104.64;1686534;83;20949;-70
2021/08/22 07:15:34;;;;;;;3.33;2.00;;;;;;;20.27;57.67;100098.23;1719161;83;21569;-70
2021/08/22 07:18:01;;;;;;;3.02;2.75;;;;;;;20.34;57.46;100097.84;1719081;83;20996;-70
2021/08/22 07:20:27;;;;;;;2.70;2.20;;;;;;;20.41;57.46;100099.62;1710944;83;21016;-69
2021/08/22 07:22:53;;;;;;;2.47;2.05;;;;;;;20.48;57.46;100099.22;1692492;84;23274;-70
2021/08/22 07:25:21;;;;;;;4.53;2.77;;;;;;;20.61;56.15;100106.58;1663169;86;21572;-69
2021/08/22 07:27:48;;;;;;;1.87;1.77;;;;;;;20.61;56.15;100106.58;1687712;83;21067;-69
2021/08/22 07:30:15;;;;;;;3.55;2.05;;;;;;;20.65;55.98;100102.93;1640704;85;20955;-70
2021/08/22 07:32:42;;;;;;;1.87;1.52;;;;;;;20.69;55.67;100106.66;1666913;86;21051;-71
2021/08/22 07:35:09;;;;;;;5.70;2.15;;;;;;;20.75;54.97;100112.83;1677579;84;21703;-69
2021/08/22 07:37:35;;;;;;;3.05;1.98;;;;;;;20.81;54.48;100111.62;1694541;82;20993;-69
2021/08/22 07:40:04;;;;;;;2.83;2.45;;;;;;;20.84;54.18;100109.06;1679865;84;21517;-69
2021/08/22 07:42:30;;;;;;;3.33;1.87;;;;;;;20.89;54.32;100117.72;1682557;84;21056;-71
2021/08/22 07:44:56;;;;;;;2.22;2.00;;;;;;;20.95;54.02;100112.94;1682343;84;21086;-70
2021/08/22 07:47:22;;;;;;;1.87;1.70;;;;;;;21.00;53.98;100105.99;1694245;84;21068;-70
2021/08/22 07:49:49;;;;;;;3.17;1.92;;;;;;;21.06;53.88;100113.75;1687807;83;20982;-71
2021/08/22 07:52:15;;;;;;;6.25;2.22;;;;;;;21.14;53.87;100110.89;1678744;84;21012;-70
2021/08/22 07:54:42;;;;;;;3.90;2.00;;;;;;;21.19;53.54;100126.62;1694538;84;21059;-70
2021/08/22 07:57:09;;;;;;;3.08;2.12;;;;;;;21.26;53.14;100122.08;1694906;84;21533;-71
2021/08/22 07:59:35;;;;;;;3.30;1.90;;;;;;;21.32;53.31;100109.90;1682300;84;22114;-71
2021/08/22 08:02:01;;;;;;;1.80;1.70;;;;;;;21.42;53.15;100116.50;1682167;84;20942;-70
2021/08/22 08:04:28;;;;;;;2.52;1.80;;;;;;;21.51;52.94;100105.60;1673214;84;20924;-71
2021/08/22 08:06:54;;;;;;;7.53;2.55;;;;;;;21.57;52.70;100109.28;1694635;83;21037;-72
2021/08/22 08:09:22;;;;;;;4.03;3.17;;;;;;;21.62;52.87;100106.41;1694355;84;21029;-70
2021/08/22 08:11:48;;;;;;;3.72;2.65;;;;;;;21.73;52.78;100108.30;1706294;84;21115;-71
2021/08/22 08:14:15;;;;;;;4.10;2.45;;;;;;;21.79;53.43;100108.42;1676873;84;20976;-71
2021/08/22 08:16:41;;;;;;;3.10;2.10;;;;;;;21.80;53.59;100105.13;1670346;84;21549;-69
2021/08/22 08:19:09;;;;;;;3.47;2.55;;;;;;;21.83;53.59;100100.38;1690971;84;21505;-73
2021/08/22 08:21:36;;;;;;;3.12;2.80;;;;;;;21.90;53.12;100107.61;1668842;85;21120;-71
2021/08/22 08:24:04;;;;;;;3.35;1.90;;;;;;;21.92;52.81;100108.11;1646831;87;21732;-70
2021/08/22 08:26:30;;;;;;;2.08;1.87;;;;;;;21.96;52.72;100100.34;1604860;85;21024;-70
2021/08/22 08:28:57;;;;;;;3.37;2.00;;;;;;;22.01;52.45;100099.41;1717509;83;21026;-73
2021/08/22 08:31:23;;;;;;;1.45;1.30;;;;;;;21.99;51.96;100099.70;1718397;83;21087;-71
2021/08/22 08:33:50;;;;;;;2.77;2.00;;;;;;;21.84;50.98;100092.42;1718874;83;21666;-75
2021/08/22 08:36:16;;;;;;;2.42;2.22;;;;;;;21.81;50.85;100093.88;1712746;83;21502;-70
2021/08/22 08:38:42;;;;;;;4.08;2.10;;;;;;;21.84;50.56;100102.82;1688637;85;21512;-71
2021/08/22 08:41:08;;;;;;;2.20;2.00;;;;;;;21.90;50.86;100094.72;1688744;83;21051;-69
2021/08/22 08:43:35;;;;;;;2.77;1.65;;;;;;;21.99;51.22;100100.27;1718720;83;21081;-68
2021/08/22 08:46:21;;;;;;;3.77;2.20;;;;;;;22.03;50.98;100096.58;1718804;83;21071;-71
2021/08/22 08:49:12;;;;;;;2.25;1.90;;;;;;;22.08;50.91;100090.95;1687271;83;21212;-69
2021/08/22 08:52:06;;;;;;;2.05;1.70;;;;;;;22.14;50.36;100093.00;1702599;83;21576;-69
2021/08/22 08:54:43;;;;;;;1.72;1.50;;;;;;;22.25;49.47;100092.97;1718895;83;21070;-69
2021/08/22 08:57:09;;;;;;;1.90;1.72;;;;;;;22.38;49.40;100087.11;1681477;85;21008;-70
2021/08/22 08:59:38;;;;;;;2.12;1.85;;;;;;;22.48;48.97;100089.00;1688407;85;21000;-70
2021/08/22 09:02:04;;;;;;;3.62;1.70;;;;;;;22.55;48.58;100095.37;1667339;84;21077;-72
2021/08/22 09:04:39;;;;;;;3.35;1.80;;;;;;;22.55;48.44;100094.00;1692945;83;21053;-71
2021/08/22 09:07:46;;;;;;;1.37;1.27;;;;;;;22.60;48.21;100097.96;1718780;83;20972;-70
2021/08/22 09:10:41;;;;;;;;;;;;;;;22.64;47.45;100093.45;1717419;83;21077;-68
2021/08/22 09:13:58;;;;;;;3.22;1.20;;;;;;;22.72;45.70;100092.70;1685040;83;20136;-70
2021/08/22 09:17:15;;;;;;;1.57;1.10;;;;;;;22.78;44.09;100092.77;1718753;82;21397;-68
2021/08/22 09:20:37;;;;;;;4.67;1.05;;;;;;;22.88;43.53;100103.44;1718329;83;21020;-69
2021/08/22 09:23:59;;;;;;;2.05;0.80;;;;;;;22.89;43.49;100094.64;1717700;83;21520;-70
2021/08/22 09:27:00;;;;;;;1.52;1.10;;;;;;;22.93;43.32;100090.94;1668551;84;20987;-76
2021/08/22 09:30:23;;;;;;;1.35;0.90;;;;;;;22.98;43.30;100092.15;1698987;84;21083;-69
2021/08/22 09:33:44;;;;;;;1.62;0.82;;;;;;;23.03;40.99;100087.87;1672987;84;22595;-69
2021/08/22 09:36:51;;;;;;;1.20;1.10;;;;;;;23.05;40.99;100087.56;1699157;84;21014;-69
2021/08/22 09:40:13;;;;;;;3.30;1.20;;;;;;;23.07;40.54;100088.63;1690837;83;21079;-69
2021/08/22 09:43:32;;;;;;;1.25;1.00;;;;;;;22.99;41.14;100086.91;1717309;83;20932;-70
2021/08/22 09:46:51;;;;;;;1.75;0.85;;;;;;;23.01;40.95;100088.78;1716765;83;20988;-69
2021/08/22 09:50:00;;;;;;;1.10;1.00;;;;;;;23.07;41.09;100080.39;1716582;82;21096;-68
2021/08/22 09:52:55;;;;;;;1.20;1.02;;;;;;;23.13;40.84;100081.25;1687168;84;21042;-69
2021/08/22 09:55:53;;;;;;;2.47;1.80;;;;;;;23.22;40.82;100086.17;1707096;83;20932;-70
2021/08/22 09:59:14;;;;;;;1.65;1.20;;;;;;;23.32;40.65;100079.54;1717856;83;21035;-68
2021/08/22 10:02:12;;;;;;;2.45;0.90;;;;;;;23.41;38.92;100067.41;1719129;83;21102;-71
2021/08/22 10:05:08;;;;;;;1.15;0.80;;;;;;;23.48;39.03;100069.70;1682202;83;21775;-75
2021/08/22 10:07:52;;;;;;;1.00;0.78;;;;;;;23.56;38.92;100085.34;1718269;83;21021;-76
2021/08/22 10:10:39;;;;;;;1.15;0.98;;;;;;;23.60;37.81;100080.81;1718876;83;21500;-73
2021/08/22 10:13:05;;;;;;;2.72;1.57;;;;;;;23.55;38.19;100087.84;1713574;83;21280;-74
2021/08/22 10:15:31;;;;;;;2.08;1.37;;;;;;;23.52;38.25;100080.27;1719032;83;21030;-73
2021/08/22 10:17:57;;;;;;;1.37;1.27;;;;;;;23.48;38.78;100078.50;1718112;83;22168;-70
2021/08/22 10:20:43;;;;;;;1.52;1.25;;;;;;;23.52;38.75;100087.70;1718559;83;21048;-78
2021/08/22 10:23:38;;;;;;;3.10;1.37;;;;;;;23.55;39.08;100084.32;1705257;83;21021;-72
2021/08/22 10:26:06;;;;;;;1.98;1.25;;;;;;;23.59;39.10;100086.09;1690983;83;21031;-78
2021/08/22 10:29:00;;;;;;;2.42;1.57;;;;;;;23.65;37.87;100074.33;1669604;86;21043;-78
2021/08/22 10:31:56;;;;;;;1.07;0.98;;;;;;;23.71;37.96;100076.59;1645009;86;22604;-79
2021/08/22 10:34:26;;;;;;;1.40;1.30;;;;;;;23.79;38.60;100083.18;1718022;83;21012;-74
2021/08/22 10:36:53;;;;;;;1.77;1.27;;;;;;;23.95;38.97;100085.64;1718891;83;21309;-72
2021/08/22 10:39:25;;;;;;;1.40;1.10;;;;;;;24.08;38.92;100076.92;1718845;83;21061;-73
2021/08/22 10:42:01;;;;;;;1.42;1.12;;;;;;;24.21;39.20;100075.39;1719414;83;26392;-73
2021/08/22 10:44:38;;;;;;;4.87;1.55;;;;;;;24.33;39.24;100088.41;1719031;83;22248;-78
2021/08/22 10:47:10;;;;;;;3.17;1.77;;;;;;;24.41;39.22;100077.95;1719274;83;21025;-77
2021/08/22 10:49:58;;;;;;;1.10;1.00;;;;;;;24.53;39.35;100090.97;1690292;83;21067;-76
2021/08/22 10:52:31;;;;;;;1.60;1.50;;;;;;;24.58;39.43;100079.20;1701393;83;20972;-77
2021/08/22 10:55:17;;;;;;;1.75;1.57;;;;;;;24.64;38.47;100084.76;1688037;83;21517;-79
2021/08/22 10:57:49;;;;;;;2.47;1.20;;;;;;;24.71;38.23;100087.77;1719101;83;21477;-78
2021/08/22 11:00:31;;;;;;;1.52;1.15;;;;;;;24.88;37.47;100088.83;1692699;83;21055;-78
2021/08/22 11:03:06;;;;;;;2.05;1.50;;;;;;;25.01;37.46;100083.05;1718855;83;20980;-75
2021/08/22 11:05:36;;;;;;;2.25;0.90;;;;;;;25.20;37.80;100086.69;1709793;82;20987;-75
2021/08/22 11:08:20;;;;;;;1.35;1.12;;;;;;;25.35;36.79;100081.94;1689133;85;21122;-75
2021/08/22 11:11:02;;;;;;;1.65;1.32;;;;;;;25.29;36.95;100081.91;1691159;83;21640;-73
2021/08/22 11:13:37;;;;;;;1.02;0.95;;;;;;;25.26;37.34;100081.78;1669470;85;20955;-73
2021/08/22 11:16:06;;;;;;;8.55;1.50;;;;;;;25.18;37.31;100080.70;1641105;87;21012;-74
2021/08/22 11:18:35;;;;;;;2.02;1.60;;;;;;;25.02;37.70;100083.86;1670096;83;21002;-76
2021/08/22 11:21:02;;;;;;;3.65;1.80;;;;;;;24.87;38.27;100083.08;1707268;83;21019;-76
2021/08/22 11:23:28;;;;;;;2.33;2.12;;;;;;;24.74;38.84;100088.50;1689536;85;21015;-75
2021/08/22 11:26:07;;;;;;;1.62;1.52;;;;;;;24.67;39.01;100081.89;1670277;85;21020;-75
2021/08/22 11:28:35;;;;;;;4.42;1.67;;;;;;;24.59;39.40;100083.58;1677664;83;22249;-77
2021/08/22 11:31:13;;;;;;;2.47;1.85;;;;;;;24.51;39.59;100077.54;1714010;83;21665;-77
2021/08/22 11:33:41;;;;;;;5.42;1.67;;;;;;;24.53;38.93;100072.52;1689195;83;21006;-75
2021/08/22 11:36:08;;;;;;;4.37;1.82;;;;;;;24.63;38.57;100072.14;1699302;84;21255;-73
2021/08/22 11:38:35;;;;;;;3.42;1.72;;;;;;;24.76;38.21;100060.63;1699163;84;21023;-74
2021/08/22 11:41:03;;;;;;;5.03;1.62;;;;;;;24.97;37.54;100070.30;1643858;87;21113;-74
2021/08/22 11:43:32;;;;;;;5.62;1.20;;;;;;;25.14;37.02;100065.44;1691743;83;21591;-73
2021/08/22 11:45:59;;;;;;;2.20;1.52;;;;;;;25.28;36.88;100063.77;1718587;83;21041;-77